createdAt,value
2023-01-03T00:04:56.238Z,8.49
2023-01-03T00:11:19.227Z,8.4
2023-01-03T00:17:39.181Z,8.28
2023-01-03T00:24:02.246Z,8.18
2023-01-03T00:30:22.192Z,8.11
2023-01-03T00:36:45.259Z,8.02
2023-01-03T00:43:05.204Z,8.01
2023-01-03T00:49:28.250Z,8.04
2023-01-03T00:55:48.196Z,8.09
2023-01-03T01:02:11.376Z,8.18
2023-01-03T01:08:31.180Z,8.24
2023-01-03T01:14:54.234Z,8.29
2023-01-03T01:21:14.284Z,8.3
2023-01-03T01:27:37.183Z,8.3
2023-01-03T01:33:57.326Z,8.32
2023-01-03T01:40:20.199Z,8.35
2023-01-03T01:46:40.259Z,8.39
2023-01-03T01:53:03.340Z,8.41
2023-01-03T01:59:23.196Z,8.47
2023-01-03T02:05:46.257Z,8.51
2023-01-03T02:12:06.339Z,8.52
2023-01-03T02:18:29.223Z,8.47
2023-01-03T02:24:49.189Z,8.43
2023-01-03T02:31:12.275Z,8.45
2023-01-03T02:37:32.185Z,8.42
2023-01-03T02:43:55.173Z,8.39
2023-01-03T02:50:15.208Z,8.39
2023-01-03T02:56:38.177Z,8.46
2023-01-03T03:02:58.337Z,8.42
2023-01-03T03:09:21.234Z,8.38
2023-01-03T03:15:41.162Z,8.4
2023-01-03T03:22:04.293Z,8.38
2023-01-03T03:28:24.256Z,8.37
2023-01-03T03:34:47.258Z,8.42
2023-01-03T03:41:07.254Z,8.45
2023-01-03T03:47:30.292Z,8.43
2023-01-03T03:53:50.191Z,8.37
2023-01-03T04:00:13.228Z,8.32
2023-01-03T04:06:33.269Z,8.19
2023-01-03T04:29:57.182Z,8.16
2023-01-03T04:36:20.167Z,8.12
2023-01-03T04:42:40.238Z,8.12
2023-01-03T04:49:03.227Z,8.11
2023-01-03T04:55:23.196Z,8.09
2023-01-03T05:01:46.238Z,8.04
2023-01-03T05:08:06.264Z,8.03
2023-01-03T05:14:29.217Z,7.99
2023-01-03T05:20:49.202Z,7.98
2023-01-03T05:27:12.252Z,7.98
2023-01-03T05:33:32.191Z,7.98
2023-01-03T05:39:55.159Z,7.97
2023-01-03T05:46:15.335Z,7.95
2023-01-03T05:52:38.178Z,7.93
2023-01-03T05:58:59.173Z,7.92
2023-01-03T06:05:23.671Z,7.88
2023-01-03T06:11:43.216Z,7.85
2023-01-03T06:18:07.818Z,7.73
2023-01-03T06:24:28.220Z,7.61
2023-01-03T06:30:51.246Z,7.38
2023-01-03T06:37:12.032Z,7.19
2023-01-03T06:43:35.352Z,7.04
2023-01-03T06:49:55.266Z,6.91
2023-01-03T06:56:18.194Z,6.77
2023-01-03T07:02:38.534Z,6.62
2023-01-03T07:09:01.232Z,6.58
2023-01-03T07:15:21.199Z,6.59
2023-01-03T07:21:44.187Z,6.64
2023-01-03T07:28:07.235Z,6.71
2023-01-03T07:34:27.236Z,6.77
2023-01-03T07:40:47.288Z,6.82
2023-01-03T07:47:10.192Z,6.9
2023-01-03T07:53:30.195Z,6.95
2023-01-03T07:59:53.254Z,7
2023-01-03T08:06:13.173Z,7.08
2023-01-03T08:12:36.157Z,7.2
2023-01-03T08:18:56.314Z,7.29
2023-01-03T08:25:19.202Z,7.34
2023-01-03T08:31:39.224Z,7.41
2023-01-03T08:38:02.175Z,7.49
2023-01-03T08:44:22.158Z,7.56
2023-01-03T08:50:45.233Z,7.61
2023-01-03T08:57:05.223Z,7.73
2023-01-03T09:03:28.365Z,7.89
2023-01-03T09:09:48.184Z,8.05
2023-01-03T09:16:11.357Z,8.14
2023-01-03T09:22:31.153Z,8.23
2023-01-03T09:38:06.112Z,8.97
2023-01-03T09:44:26.157Z,9.37
2023-01-03T09:51:16.879Z,9.68
2023-01-03T09:57:09.255Z,9.98
2023-01-03T10:03:32.253Z,10.2
2023-01-03T10:09:52.240Z,10.36
2023-01-03T10:16:15.221Z,10.41
2023-01-03T10:22:35.159Z,10.51
2023-01-03T10:28:58.280Z,10.61
2023-01-03T10:35:18.219Z,10.73
2023-01-03T10:41:41.292Z,10.88
2023-01-03T10:48:01.223Z,11.03
2023-01-03T10:54:24.229Z,11.17
2023-01-03T11:00:44.329Z,11.3
2023-01-03T11:07:07.192Z,11.36
2023-01-03T11:13:27.265Z,11.46
2023-01-03T11:19:50.211Z,11.55
2023-01-03T11:26:10.227Z,11.67
2023-01-03T11:32:33.218Z,11.73
2023-01-03T11:38:53.250Z,11.86
2023-01-03T11:45:16.281Z,11.79
2023-01-03T11:51:36.279Z,11.76
2023-01-03T11:57:59.227Z,11.71
2023-01-03T12:04:19.259Z,11.68
2023-01-03T12:10:42.232Z,11.7
2023-01-03T12:17:02.254Z,11.85
2023-01-03T12:23:25.174Z,12.21
2023-01-03T12:29:45.249Z,12.56
2023-01-03T12:36:08.183Z,12.86
2023-01-03T12:42:28.184Z,13.02
2023-01-03T12:48:51.336Z,12.97
2023-01-03T12:55:11.192Z,12.92
2023-01-03T13:01:34.396Z,12.59
2023-01-03T13:07:54.241Z,12.65
2023-01-03T13:14:17.217Z,12.81
2023-01-03T13:20:37.299Z,12.67
2023-01-03T13:27:00.269Z,12.76
2023-01-03T13:33:20.231Z,12.75
2023-01-03T13:39:43.179Z,12.57
2023-01-03T13:46:03.262Z,12.26
2023-01-03T13:52:26.214Z,12.03
2023-01-03T13:58:46.177Z,11.86
2023-01-03T14:05:09.273Z,11.81
2023-01-03T14:11:29.245Z,11.92
2023-01-03T14:17:52.379Z,11.95
2023-01-03T14:24:12.245Z,11.94
2023-01-03T14:30:35.161Z,11.93
2023-01-03T14:36:55.220Z,11.9
2023-01-03T14:52:47.138Z,11.54
2023-01-03T14:59:07.160Z,11.36
2023-01-03T15:05:30.158Z,11.23
2023-01-03T15:11:50.194Z,11.17
2023-01-03T15:18:17.262Z,11.07
2023-01-03T15:24:35.164Z,10.91
2023-01-03T15:30:56.340Z,10.72
2023-01-03T15:37:16.217Z,10.55
2023-01-03T15:43:39.225Z,10.39
2023-01-03T15:49:59.245Z,10.24
2023-01-03T15:56:22.312Z,10.13
2023-01-03T16:02:42.602Z,9.96
2023-01-03T16:09:05.472Z,9.78
2023-01-03T16:15:25.183Z,9.67
2023-01-03T16:22:09.195Z,9.57
2023-01-03T16:28:12.181Z,9.5
2023-01-03T16:34:33.797Z,9.42
2023-01-03T16:40:51.192Z,9.36
2023-01-03T16:47:14.252Z,9.2
2023-01-03T16:53:34.174Z,9.03
2023-01-03T16:59:57.410Z,8.84
2023-01-03T17:06:17.236Z,8.61
2023-01-03T17:12:40.176Z,8.41
2023-01-03T17:19:00.203Z,8.24
2023-01-03T17:25:23.209Z,8.01
2023-01-03T17:31:43.219Z,7.96
2023-01-03T17:38:24.982Z,8.11
2023-01-03T17:44:26.192Z,8.29
2023-01-03T17:50:49.180Z,8.4
2023-01-03T17:57:09.151Z,8.44
2023-01-03T18:03:32.387Z,8.44
2023-01-03T18:09:52.194Z,8.41
2023-01-03T18:16:15.313Z,8.37
2023-01-03T18:22:35.199Z,8.32
2023-01-03T18:28:58.301Z,8.26
2023-01-03T18:35:22.397Z,8.23
2023-01-03T18:41:41.174Z,8.22
2023-01-03T18:48:01.213Z,8.21
2023-01-03T18:54:24.209Z,8.17
2023-01-03T19:00:44.243Z,8.16
2023-01-03T19:07:07.205Z,8.1
2023-01-03T19:13:27.201Z,8.08
2023-01-03T19:19:50.555Z,7.99
2023-01-03T19:26:10.187Z,7.96
2023-01-03T19:32:33.151Z,7.91
2023-01-03T19:38:53.201Z,7.86
2023-01-03T19:45:16.160Z,7.81
2023-01-03T20:08:58.126Z,7.39
2023-01-03T20:15:18.165Z,7.25
2023-01-03T20:21:41.247Z,7.08
2023-01-03T20:28:01.240Z,6.93
2023-01-03T20:34:24.173Z,6.82
2023-01-03T20:40:44.209Z,6.73
2023-01-03T20:47:07.235Z,6.64
2023-01-03T20:53:27.184Z,6.59
2023-01-03T20:59:50.169Z,6.6
2023-01-03T21:06:10.249Z,6.53
2023-01-03T21:12:37.199Z,6.47
2023-01-03T21:18:53.168Z,6.47
2023-01-03T21:25:16.242Z,6.45
2023-01-03T21:31:36.379Z,6.44
2023-01-03T21:37:59.243Z,6.4
2023-01-03T21:44:19.224Z,6.29
2023-01-03T21:50:42.217Z,6.19
2023-01-03T21:57:02.185Z,6.17
2023-01-03T22:03:25.310Z,6.22
2023-01-03T22:09:45.164Z,6.39
2023-01-03T22:16:08.313Z,6.62
2023-01-03T22:22:28.179Z,6.87
2023-01-03T22:28:51.190Z,7.02
2023-01-03T22:35:11.293Z,7.15
2023-01-03T22:41:34.197Z,7.19
2023-01-03T22:47:54.187Z,7.16
2023-01-03T22:54:17.246Z,7.12
2023-01-03T23:19:49.178Z,6.47
2023-01-03T23:26:09.195Z,6.53
2023-01-03T23:32:32.160Z,6.46
2023-01-03T23:38:52.265Z,6.4
2023-01-03T23:45:15.186Z,6.42
2023-01-03T23:51:35.181Z,6.56
2023-01-03T23:57:58.232Z,6.83
